Pikeville, TN (37367)

7:44 AM CDT on August 05, 2015 (GMT -0500)
Bledsoe Co 911 CNT | | Change Station
CLOSE
Current Station
Personal Weather Station
Location: Pikeville, TN
Elevation: 879 ft
Nearby Weather Stations

Elev 879 ft 35.61 °N, 85.19 °W | Updated 2 minutes ago

Partly Cloudy
Partly Cloudy
73.9 °F
Feels Like 74 °F
N
2.2
Wind Variable Wind from North

Today
High -- | Low -- °F
--% Chance of Precip.
Yesterday
High -- | Low -- °F
Precip. -- in
5:51 AM 7:41 PM
Waning Gibbous, 67% visible
Pressure 30.04 in
Visibility 9.0 miles
Clouds Clear
Heat Index 74 °F
Dew Point 68 °F
Humidity 82%
Rainfall 0.00 in
Snow Depth Not available.
UV 1 out of 12
Pollen 4.50 out of 12
Air Quality Not available.
Flu Activity Not available.
METAR KCSV 051153Z AUTO 00000KT 9SM CLR 22/19 A3010 RMK AO2 SLP170 7//// T02170194 10228 20206 51004

More Conditions Fewer Conditions

Pressure 30.04 in
Visibility 9.0 miles
Clouds Clear
Heat Index 74 °F
Dew Point 68 °F
Humidity 82%
Rainfall 0.00 in
Snow Depth Not available.
UV 1 out of 12
Pollen 4.50 out of 12
Air Quality Not available.
Flu Activity Not available.
METAR KCSV 051153Z AUTO 00000KT 9SM CLR 22/19 A3010 RMK AO2 SLP170 7//// T02170194 10228 20206 51004

More Conditions Fewer Conditions

10-Day Weather Forecast

×

Almanac

Astronomy

Aug. 05, 2015 Rise Set
Actual Time
Civil Twilight
Nautical Twilight
Astronomical Twilight
Moon
Length of Visible Light
Length of Day
Tomorrow will be .
, % of the Moon is Illuminated

Today's Extremes

State Highs State Lows

Community

WunderPhotos

Upload Photos

1,844,175 photos uploaded!

WunderBlogs® & News

Nearby

Air Quality

  Air Quality AQ Index Pollutant
Not available.

Snow Depth

Station Depth Elevation

Earthquake Activity

City Distance Mag. Time & Date
Minimum magnitude displayed is 2.5.

Coastal Water Temperatures

Place Temperature

Stations

Nearby Weather Stations

Station Location Temp. Windchill Dew Point Humidity Wind Precip. Elev Updated Type